createdAt,value
2022-12-22T00:02:00.799Z,2.34
2022-12-22T00:04:46.388Z,2.48
2022-12-22T00:07:32.237Z,2.44
2022-12-22T00:10:17.807Z,2.28
2022-12-22T00:13:03.516Z,2.38
2022-12-22T00:15:52.793Z,2.46
2022-12-22T00:18:39.035Z,2.32
2022-12-22T00:21:24.728Z,2.54
2022-12-22T00:24:10.503Z,2.58
2022-12-22T00:26:56.257Z,2.44
2022-12-22T00:29:41.944Z,2.57
2022-12-22T00:32:32.375Z,2.41
2022-12-22T00:35:18.226Z,2.33
2022-12-22T00:38:03.684Z,2.64
2022-12-22T00:40:49.463Z,2.31
2022-12-22T00:43:35.121Z,2.18
2022-12-22T00:46:22.601Z,2.08
2022-12-22T00:49:08.444Z,2.65
2022-12-22T00:51:54.090Z,2.55
2022-12-22T00:54:41.540Z,2.47
2022-12-22T00:57:36.235Z,2.54
2022-12-22T01:00:23.685Z,2.61
2022-12-22T01:03:09.168Z,2.46
2022-12-22T01:05:54.709Z,2.62
2022-12-22T01:08:40.258Z,2.57
2022-12-22T01:11:26.437Z,2.39
2022-12-22T01:14:11.970Z,2.30
2022-12-22T01:16:57.288Z,2.45
2022-12-22T01:19:42.997Z,2.40
2022-12-22T01:22:39.748Z,2.57
2022-12-22T01:25:31.959Z,2.32
2022-12-22T01:28:17.571Z,2.55
2022-12-22T01:31:03.971Z,2.32
2022-12-22T01:33:49.637Z,2.65
2022-12-22T01:36:35.841Z,2.67
2022-12-22T01:39:22.248Z,2.47
2022-12-22T01:42:09.446Z,2.69
2022-12-22T01:44:55.146Z,2.46
2022-12-22T01:47:58.773Z,2.34
2022-12-22T01:50:49.446Z,2.57
2022-12-22T01:53:38.147Z,2.62
2022-12-22T01:56:23.902Z,2.48
2022-12-22T01:59:13.504Z,2.64
2022-12-22T02:02:01.111Z,2.58
2022-12-22T02:04:51.042Z,2.55
2022-12-22T02:07:55.995Z,2.31
2022-12-22T02:10:53.574Z,2.67
2022-12-22T02:14:11.608Z,2.48
2022-12-22T02:17:10.145Z,2.52
2022-12-22T02:20:07.634Z,2.47
2022-12-22T02:23:29.863Z,2.56
2022-12-22T02:26:29.270Z,2.36
2022-12-22T02:29:15.703Z,2.31
2022-12-22T02:32:01.489Z,2.35
2022-12-22T02:34:47.117Z,2.64
2022-12-22T02:37:54.021Z,2.68
2022-12-22T02:41:15.542Z,2.52
2022-12-22T02:44:01.252Z,2.65
2022-12-22T02:46:54.009Z,2.63
2022-12-22T02:49:55.845Z,2.60
2022-12-22T02:52:49.471Z,2.44
2022-12-22T02:55:36.567Z,2.67
2022-12-22T02:58:22.238Z,2.37
2022-12-22T03:01:08.480Z,2.36
2022-12-22T03:03:54.219Z,2.36
2022-12-22T03:06:39.732Z,2.48
2022-12-22T03:09:25.158Z,2.42
2022-12-22T03:12:10.765Z,2.32
2022-12-22T03:14:56.433Z,2.40
2022-12-22T03:17:42.235Z,2.57
2022-12-22T03:20:28.008Z,2.11
2022-12-22T03:23:13.710Z,2.60
2022-12-22T03:25:55.989Z,2.32
2022-12-22T03:28:26.690Z,2.62
2022-12-22T03:31:02.816Z,2.60
2022-12-22T03:33:30.662Z,2.48
2022-12-22T03:35:58.124Z,2.44
2022-12-22T03:38:25.502Z,2.51
2022-12-22T03:40:52.893Z,2.50
2022-12-22T03:43:38.655Z,2.56
2022-12-22T03:46:17.860Z,2.65
2022-12-22T03:49:05.767Z,2.44
2022-12-22T03:51:34.168Z,2.32
2022-12-22T03:54:01.301Z,2.69
2022-12-22T03:56:28.591Z,2.54
2022-12-22T03:58:55.684Z,2.64
2022-12-22T04:01:22.947Z,2.54
2022-12-22T04:03:50.668Z,2.50
2022-12-22T04:06:18.274Z,2.49
2022-12-22T04:08:45.577Z,2.35
2022-12-22T04:11:33.343Z,2.33
2022-12-22T04:14:00.356Z,2.49
2022-12-22T04:16:27.339Z,2.42
2022-12-22T04:18:54.274Z,2.58
2022-12-22T04:21:21.302Z,2.60
2022-12-22T04:23:51.401Z,2.64
2022-12-22T04:26:20.715Z,2.57
2022-12-22T04:28:47.806Z,2.74
2022-12-22T04:31:14.775Z,2.45
2022-12-22T04:33:41.809Z,2.62
2022-12-22T04:36:09.753Z,2.79
2022-12-22T04:38:37.149Z,2.61
2022-12-22T04:41:04.791Z,2.79
2022-12-22T04:43:32.066Z,2.55
2022-12-22T04:45:59.089Z,2.74
2022-12-22T04:48:27.734Z,2.79
2022-12-22T04:50:57.159Z,2.56
2022-12-22T04:53:25.575Z,2.79
2022-12-22T04:55:59.003Z,2.78
2022-12-22T04:58:26.048Z,2.78
2022-12-22T05:00:52.980Z,2.83
2022-12-22T05:03:20.073Z,2.63
2022-12-22T05:05:47.114Z,2.62
2022-12-22T05:08:14.005Z,2.77
2022-12-22T05:10:41.568Z,2.58
2022-12-22T05:13:08.383Z,2.72
2022-12-22T05:15:36.721Z,2.44
2022-12-22T05:18:04.503Z,2.72
2022-12-22T05:20:31.587Z,2.50
2022-12-22T05:22:58.950Z,2.78
2022-12-22T05:25:29.868Z,2.65
2022-12-22T05:27:58.408Z,2.78
2022-12-22T05:30:25.507Z,2.76
2022-12-22T05:32:52.521Z,2.77
2022-12-22T05:35:20.232Z,2.77
2022-12-22T05:37:47.163Z,2.57
2022-12-22T05:40:14.177Z,2.55
2022-12-22T05:42:41.154Z,2.79
2022-12-22T05:45:15.649Z,2.89
2022-12-22T05:47:44.208Z,2.84
2022-12-22T05:50:13.357Z,2.96
2022-12-22T05:52:40.724Z,2.72
2022-12-22T05:55:08.511Z,2.96
2022-12-22T05:57:35.979Z,2.76
2022-12-22T06:00:09.012Z,2.89
2022-12-22T06:02:40.284Z,2.89
2022-12-22T06:05:07.786Z,2.63
2022-12-22T06:07:35.018Z,2.96
2022-12-22T06:10:06.435Z,2.87
2022-12-22T06:12:38.494Z,2.95
2022-12-22T06:15:06.643Z,2.80
2022-12-22T06:17:34.943Z,2.73
2022-12-22T06:20:06.214Z,2.93
2022-12-22T06:22:34.113Z,2.72
2022-12-22T06:25:01.441Z,2.94
2022-12-22T06:27:28.381Z,2.98
2022-12-22T06:29:55.316Z,2.90
2022-12-22T06:32:22.385Z,2.96
2022-12-22T06:34:49.344Z,2.43
2022-12-22T06:37:16.296Z,2.74
2022-12-22T06:39:43.237Z,2.56
2022-12-22T06:42:29.634Z,2.96
2022-12-22T06:44:56.595Z,2.86
2022-12-22T06:47:23.585Z,2.86
2022-12-22T06:49:51.433Z,2.77
2022-12-22T06:52:18.325Z,3.03
2022-12-22T06:54:45.408Z,3.08
2022-12-22T06:57:12.597Z,3.16
2022-12-22T06:59:39.507Z,3.05
2022-12-22T07:02:06.975Z,3.18
2022-12-22T07:04:34.078Z,3.31
2022-12-22T07:07:00.971Z,3.30
2022-12-22T07:09:27.992Z,3.28
2022-12-22T07:11:54.996Z,3.39
2022-12-22T07:14:22.471Z,3.41
2022-12-22T07:16:49.590Z,3.46
2022-12-22T07:19:16.600Z,3.30
2022-12-22T07:21:43.594Z,3.44
2022-12-22T07:24:10.780Z,3.75
2022-12-22T07:26:37.770Z,3.77
2022-12-22T07:29:04.712Z,3.96
2022-12-22T07:31:31.646Z,3.76
2022-12-22T07:33:58.608Z,3.76
2022-12-22T07:36:25.683Z,3.67
2022-12-22T07:38:52.809Z,3.74
2022-12-22T07:41:39.186Z,3.84
2022-12-22T07:44:07.753Z,3.94
2022-12-22T07:46:36.729Z,3.81
2022-12-22T07:49:24.666Z,4.21
2022-12-22T07:51:52.045Z,4.35
2022-12-22T07:54:19.392Z,4.60
2022-12-22T07:56:47.204Z,4.63
2022-12-22T07:59:14.853Z,4.72
2022-12-22T08:01:42.548Z,4.90
2022-12-22T08:04:10.498Z,5.02
2022-12-22T08:06:38.402Z,4.55
2022-12-22T08:09:07.048Z,5.07
2022-12-22T08:11:34.504Z,5.06
2022-12-22T08:14:02.214Z,5.32
2022-12-22T08:16:30.113Z,5.56
2022-12-22T08:18:57.359Z,5.76
2022-12-22T08:21:24.594Z,5.89
2022-12-22T08:23:51.754Z,5.94
2022-12-22T08:26:25.363Z,6.02
2022-12-22T08:29:19.689Z,6.23
2022-12-22T08:31:47.176Z,6.32
2022-12-22T08:34:16.644Z,6.42
2022-12-22T08:36:49.280Z,6.49
2022-12-22T08:39:17.424Z,6.27
2022-12-22T08:41:50.583Z,6.04
2022-12-22T08:44:23.545Z,6.56
2022-12-22T08:46:51.760Z,6.60
2022-12-22T08:49:19.556Z,6.68
2022-12-22T08:51:47.637Z,6.64
2022-12-22T08:54:14.802Z,6.55
2022-12-22T08:56:42.639Z,6.84
2022-12-22T08:59:10.453Z,6.80
2022-12-22T09:01:39.420Z,7.02
2022-12-22T09:04:09.838Z,7.10
2022-12-22T09:06:41.179Z,7.19
2022-12-22T09:09:10.476Z,7.15
2022-12-22T09:11:37.590Z,7.17
2022-12-22T09:14:05.346Z,7.27
2022-12-22T09:16:33.981Z,7.40
2022-12-22T09:19:01.982Z,7.51
2022-12-22T09:21:30.051Z,7.01
2022-12-22T09:23:57.950Z,7.14
2022-12-22T09:26:26.884Z,8.06
2022-12-22T09:28:55.781Z,7.69
2022-12-22T09:31:23.990Z,8.00
2022-12-22T09:33:51.713Z,8.38
2022-12-22T09:36:27.610Z,8.30
2022-12-22T09:38:54.665Z,8.40
2022-12-22T09:41:34.995Z,8.55
2022-12-22T09:44:11.523Z,8.79
2022-12-22T09:46:39.876Z,8.50
2022-12-22T09:49:07.504Z,9.00
2022-12-22T09:51:41.876Z,9.09
2022-12-22T09:54:12.000Z,9.03
2022-12-22T09:56:39.237Z,9.28
2022-12-22T09:59:13.832Z,9.19
2022-12-22T10:01:59.341Z,9.41
2022-12-22T10:04:56.740Z,9.36
2022-12-22T10:07:50.170Z,9.69
2022-12-22T10:10:27.788Z,9.77
2022-12-22T10:12:58.078Z,9.62
2022-12-22T10:15:26.160Z,9.63
2022-12-22T10:18:09.055Z,10.04
2022-12-22T10:20:38.543Z,10.13
2022-12-22T10:23:18.550Z,10.24
2022-12-22T10:26:27.474Z,10.37
2022-12-22T10:28:49.404Z,10.42
2022-12-22T10:31:27.507Z,10.52
2022-12-22T10:33:57.449Z,10.54
2022-12-22T10:36:29.581Z,10.61
2022-12-22T10:39:19.331Z,10.39
2022-12-22T10:41:49.073Z,10.51
2022-12-22T10:44:16.068Z,10.89
2022-12-22T10:46:46.036Z,10.96
2022-12-22T10:49:22.164Z,10.99
2022-12-22T10:52:27.375Z,11.04
2022-12-22T10:55:18.392Z,11.10
2022-12-22T10:57:45.489Z,11.12
2022-12-22T11:00:32.286Z,10.83
2022-12-22T11:03:01.629Z,11.07
2022-12-22T11:05:30.940Z,11.15
2022-12-22T11:08:10.505Z,11.17
2022-12-22T11:10:55.527Z,11.32
2022-12-22T11:13:45.342Z,11.41
2022-12-22T11:16:21.796Z,11.31
2022-12-22T11:18:57.554Z,11.48
2022-12-22T11:21:39.651Z,11.51
2022-12-22T11:24:15.572Z,11.59
2022-12-22T11:26:54.793Z,11.67
2022-12-22T11:29:24.665Z,11.72
2022-12-22T11:32:19.214Z,11.72
2022-12-22T11:35:03.607Z,11.74
2022-12-22T11:37:33.171Z,11.80
2022-12-22T11:40:29.897Z,11.68
2022-12-22T11:43:16.070Z,11.85
2022-12-22T11:45:51.789Z,11.80
2022-12-22T11:48:43.513Z,11.84
2022-12-22T11:51:47.333Z,11.85
2022-12-22T11:54:39.910Z,11.88
2022-12-22T11:57:39.983Z,11.86
2022-12-22T12:00:18.396Z,11.81
2022-12-22T12:03:13.229Z,11.86
2022-12-22T12:05:43.283Z,11.81
2022-12-22T12:08:34.744Z,11.53
2022-12-22T12:11:26.533Z,11.76
2022-12-22T12:13:53.400Z,11.71
2022-12-22T12:16:41.389Z,11.68
2022-12-22T12:19:28.557Z,11.57
2022-12-22T12:22:01.901Z,11.58
2022-12-22T12:24:43.843Z,11.52
2022-12-22T12:27:32.633Z,11.46
2022-12-22T12:30:37.528Z,11.45
2022-12-22T12:33:09.923Z,11.49
2022-12-22T12:35:49.319Z,11.24
2022-12-22T12:41:20.985Z,11.02
2022-12-22T12:43:50.033Z,10.70
2022-12-22T12:46:51.339Z,10.98
2022-12-22T12:49:36.469Z,11.05
2022-12-22T12:52:07.838Z,11.05
2022-12-22T12:54:40.053Z,11.04
2022-12-22T12:57:24.003Z,10.99
2022-12-22T12:59:53.127Z,10.74
2022-12-22T13:02:29.886Z,11.09
2022-12-22T13:05:12.371Z,11.08
2022-12-22T13:08:06.753Z,11.08
2022-12-22T13:10:42.852Z,10.92
2022-12-22T13:13:34.754Z,10.75
2022-12-22T13:16:07.838Z,10.74
2022-12-22T13:18:34.797Z,10.55
2022-12-22T13:21:42.504Z,10.47
2022-12-22T13:24:24.726Z,10.23
2022-12-22T13:26:57.485Z,9.86
2022-12-22T13:29:47.192Z,9.66
2022-12-22T13:32:34.327Z,9.47
2022-12-22T13:35:34.711Z,8.95
2022-12-22T13:38:04.002Z,8.91
2022-12-22T13:40:32.740Z,8.62
2022-12-22T13:43:08.014Z,8.57
2022-12-22T13:45:42.361Z,8.20
2022-12-22T13:48:15.869Z,8.30
2022-12-22T13:50:55.331Z,7.90
2022-12-22T13:54:08.402Z,8.00
2022-12-22T13:56:41.112Z,7.90
2022-12-22T13:59:38.210Z,7.73
2022-12-22T14:02:08.276Z,7.58
2022-12-22T14:04:37.048Z,7.04
2022-12-22T14:07:15.076Z,7.43
2022-12-22T14:09:50.515Z,7.28
2022-12-22T14:12:33.419Z,7.27
2022-12-22T14:15:03.225Z,7.21
2022-12-22T14:17:33.385Z,6.68
2022-12-22T14:20:15.223Z,6.74
2022-12-22T14:22:54.839Z,6.63
2022-12-22T14:25:34.506Z,6.70
2022-12-22T14:28:02.936Z,6.37
2022-12-22T14:30:39.285Z,6.61
2022-12-22T14:33:33.766Z,6.28
2022-12-22T14:36:26.811Z,6.43
2022-12-22T14:39:03.782Z,6.28
2022-12-22T14:41:51.493Z,5.83
2022-12-22T14:44:20.943Z,6.10
2022-12-22T14:47:07.115Z,6.00
2022-12-22T14:49:35.468Z,6.02
2022-12-22T14:52:14.691Z,5.45
2022-12-22T14:54:47.298Z,5.97
2022-12-22T14:57:20.579Z,5.34
2022-12-22T15:00:08.785Z,5.59
2022-12-22T15:02:41.013Z,5.63
2022-12-22T15:05:25.557Z,5.56
2022-12-22T15:08:05.504Z,5.57
2022-12-22T15:10:44.404Z,5.22
2022-12-22T15:13:19.003Z,5.31
2022-12-22T15:15:46.084Z,5.13
2022-12-22T15:18:16.241Z,5.17
2022-12-22T15:20:43.410Z,5.42
2022-12-22T15:23:14.352Z,5.44
2022-12-22T15:25:41.334Z,5.12
2022-12-22T15:28:08.546Z,5.09
2022-12-22T15:30:36.369Z,5.41
2022-12-22T15:33:03.685Z,5.39
2022-12-22T15:35:35.145Z,5.32
2022-12-22T15:38:02.220Z,4.97
2022-12-22T15:40:29.430Z,5.10
2022-12-22T15:42:56.849Z,5.24
2022-12-22T15:45:23.882Z,5.25
2022-12-22T15:47:55.640Z,5.17
2022-12-22T15:50:33.533Z,4.22
2022-12-22T15:53:05.366Z,5.09
2022-12-22T15:55:32.502Z,5.04
2022-12-22T15:58:00.381Z,4.98
2022-12-22T16:00:27.409Z,4.85
2022-12-22T16:02:54.452Z,4.89
2022-12-22T16:05:21.659Z,4.77
2022-12-22T16:07:48.992Z,4.43
2022-12-22T16:10:28.337Z,4.60
2022-12-22T16:13:00.610Z,4.53
2022-12-22T16:15:31.313Z,4.25
2022-12-22T16:17:59.423Z,4.55
2022-12-22T16:20:34.367Z,4.32
2022-12-22T16:23:07.214Z,4.19
2022-12-22T16:25:39.025Z,4.28
2022-12-22T16:28:07.269Z,3.84
2022-12-22T16:30:34.915Z,4.11
2022-12-22T16:33:01.928Z,3.91
2022-12-22T16:35:30.549Z,3.58
2022-12-22T16:37:59.746Z,4.05
2022-12-22T16:40:27.967Z,3.61
2022-12-22T16:46:01.172Z,4.36
2022-12-22T16:48:35.453Z,4.18
2022-12-22T16:51:02.395Z,3.67
2022-12-22T16:53:29.375Z,4.20
2022-12-22T16:55:56.499Z,3.56
2022-12-22T16:58:23.566Z,4.09
2022-12-22T17:00:50.557Z,4.04
2022-12-22T17:03:24.590Z,4.03
2022-12-22T17:05:59.305Z,3.94
2022-12-22T17:08:30.091Z,3.59
2022-12-22T17:11:02.116Z,3.94
2022-12-22T17:13:35.792Z,3.33
2022-12-22T17:16:03.183Z,3.87
2022-12-22T17:18:31.496Z,3.71
2022-12-22T17:21:00.447Z,3.85
2022-12-22T17:23:51.581Z,3.80
2022-12-22T17:26:23.202Z,3.41
2022-12-22T17:28:51.273Z,3.41
2022-12-22T17:31:20.571Z,3.51
2022-12-22T17:33:48.600Z,3.65
2022-12-22T17:36:22.270Z,3.60
2022-12-22T17:38:49.294Z,3.65
2022-12-22T17:41:17.658Z,3.58
2022-12-22T17:43:46.388Z,3.31
2022-12-22T17:46:19.183Z,3.62
2022-12-22T17:48:47.410Z,2.99
2022-12-22T17:51:32.437Z,3.25
2022-12-22T17:54:00.052Z,3.30
2022-12-22T17:56:27.987Z,3.40
2022-12-22T17:58:55.094Z,3.42
2022-12-22T18:01:28.364Z,3.51
2022-12-22T18:03:56.276Z,3.19
2022-12-22T18:06:31.097Z,3.24
2022-12-22T18:08:58.224Z,3.46
2022-12-22T18:11:26.251Z,2.68
2022-12-22T18:13:54.279Z,3.35
2022-12-22T18:16:23.415Z,3.06
2022-12-22T18:18:51.518Z,3.23
2022-12-22T18:21:21.902Z,3.39
2022-12-22T18:23:50.980Z,3.31
2022-12-22T18:26:30.007Z,3.22
2022-12-22T18:28:57.558Z,3.19
2022-12-22T18:31:25.547Z,3.01
2022-12-22T18:33:53.083Z,2.93
2022-12-22T18:36:29.027Z,3.18
2022-12-22T18:38:56.934Z,3.19
2022-12-22T18:41:25.517Z,3.17
2022-12-22T18:43:53.127Z,3.24
2022-12-22T18:46:20.615Z,3.28
2022-12-22T18:48:48.741Z,3.30
2022-12-22T18:51:24.503Z,3.20
2022-12-22T18:53:53.750Z,3.09
2022-12-22T18:56:22.127Z,2.71
2022-12-22T18:58:49.529Z,3.14
2022-12-22T19:01:23.223Z,3.06
2022-12-22T19:03:52.548Z,3.14
2022-12-22T19:06:21.494Z,2.91
2022-12-22T19:08:49.687Z,3.03
2022-12-22T19:11:18.646Z,2.75
2022-12-22T19:13:48.123Z,3.13
2022-12-22T19:16:18.251Z,2.62
2022-12-22T19:18:45.523Z,2.92
2022-12-22T19:21:14.040Z,2.96
2022-12-22T19:23:41.503Z,3.00
2022-12-22T19:26:19.622Z,2.85
2022-12-22T19:28:49.457Z,2.74
2022-12-22T19:31:22.296Z,2.62
2022-12-22T19:33:49.725Z,2.77
2022-12-22T19:36:22.184Z,2.92
2022-12-22T19:38:51.085Z,2.70
2022-12-22T19:41:36.982Z,2.59
2022-12-22T19:44:04.464Z,2.60
2022-12-22T19:46:35.727Z,2.40
2022-12-22T19:49:02.906Z,2.76
2022-12-22T19:51:31.672Z,2.83
2022-12-22T19:53:58.754Z,2.88
2022-12-22T19:56:32.102Z,2.83
2022-12-22T19:59:01.008Z,2.71
2022-12-22T20:01:28.091Z,2.87
2022-12-22T20:03:56.355Z,2.88
2022-12-22T20:06:23.282Z,2.83
2022-12-22T20:08:50.304Z,2.67
2022-12-22T20:11:19.572Z,2.60
2022-12-22T20:13:48.238Z,2.84
2022-12-22T20:16:16.858Z,2.57
2022-12-22T20:18:46.393Z,2.89
2022-12-22T20:21:21.011Z,2.76
2022-12-22T20:23:48.391Z,2.41
2022-12-22T20:26:21.120Z,2.78
2022-12-22T20:28:49.906Z,2.78
2022-12-22T20:31:19.586Z,2.80
2022-12-22T20:33:46.729Z,2.74
2022-12-22T20:36:24.512Z,2.80
2022-12-22T20:38:53.348Z,2.53
2022-12-22T20:41:21.381Z,2.75
2022-12-22T20:43:49.112Z,2.53
2022-12-22T20:46:23.994Z,2.72
2022-12-22T20:48:56.263Z,2.53
2022-12-22T20:51:27.062Z,2.32
2022-12-22T20:53:54.371Z,2.76
2022-12-22T20:56:36.746Z,2.66
2022-12-22T20:59:20.302Z,2.69
2022-12-22T21:01:48.977Z,2.67
2022-12-22T21:04:16.364Z,2.42
2022-12-22T21:06:47.767Z,2.31
2022-12-22T21:09:16.247Z,2.41
2022-12-22T21:11:43.404Z,2.60
2022-12-22T21:14:10.987Z,2.39
2022-12-22T21:16:38.703Z,2.59
2022-12-22T21:19:06.035Z,2.64
2022-12-22T21:21:33.310Z,2.37
2022-12-22T21:24:00.460Z,2.43
2022-12-22T21:26:33.011Z,2.46
2022-12-22T21:29:02.689Z,2.63
2022-12-22T21:31:29.717Z,2.65
2022-12-22T21:33:56.895Z,2.42
2022-12-22T21:36:28.123Z,2.63
2022-12-22T21:38:58.762Z,2.46
2022-12-22T21:41:44.315Z,2.57
2022-12-22T21:44:12.802Z,2.48
2022-12-22T21:46:42.444Z,2.43
2022-12-22T21:49:19.878Z,2.38
2022-12-22T21:51:48.897Z,2.30
2022-12-22T21:54:17.457Z,2.49
2022-12-22T21:56:44.531Z,2.53
2022-12-22T21:59:11.521Z,2.19
2022-12-22T22:01:40.994Z,2.42
2022-12-22T22:04:08.872Z,2.50
2022-12-22T22:06:35.863Z,2.44
2022-12-22T22:09:05.291Z,2.49
2022-12-22T22:11:32.686Z,2.51
2022-12-22T22:13:59.669Z,2.40
2022-12-22T22:16:26.676Z,2.34
2022-12-22T22:18:53.647Z,2.27
2022-12-22T22:21:20.622Z,2.62
2022-12-22T22:23:47.564Z,2.58
2022-12-22T22:26:14.406Z,2.27
2022-12-22T22:28:41.249Z,2.41
2022-12-22T22:31:10.315Z,2.51
2022-12-22T22:33:37.681Z,2.52
2022-12-22T22:36:08.761Z,2.46
2022-12-22T22:38:36.091Z,2.58
2022-12-22T22:41:03.158Z,2.51
2022-12-22T22:43:30.171Z,2.49
2022-12-22T22:45:57.178Z,2.49
2022-12-22T22:48:24.339Z,2.29
2022-12-22T22:50:51.698Z,2.45
2022-12-22T22:53:18.685Z,2.29
2022-12-22T22:55:45.583Z,2.40
2022-12-22T22:58:12.505Z,2.18
2022-12-22T23:00:39.634Z,2.14
2022-12-22T23:03:06.747Z,2.46
2022-12-22T23:05:34.148Z,2.45
2022-12-22T23:08:01.103Z,2.40
2022-12-22T23:10:28.153Z,2.34
2022-12-22T23:12:55.423Z,2.24
2022-12-22T23:15:22.381Z,2.19
2022-12-22T23:17:51.981Z,2.41
2022-12-22T23:20:19.579Z,2.41
2022-12-22T23:22:46.539Z,2.41
2022-12-22T23:25:14.271Z,2.36
2022-12-22T23:27:41.222Z,2.47
2022-12-22T23:30:09.123Z,2.43
2022-12-22T23:32:36.056Z,2.29
2022-12-22T23:35:03.034Z,2.00
2022-12-22T23:37:30.029Z,2.17
2022-12-22T23:40:05.799Z,2.35
2022-12-22T23:42:44.040Z,2.36
2022-12-22T23:45:11.147Z,2.30
2022-12-22T23:47:38.080Z,2.35
2022-12-22T23:50:05.559Z,2.06
2022-12-22T23:52:32.494Z,2.32
2022-12-22T23:54:59.544Z,2.05
2022-12-22T23:57:26.560Z,2.08
2022-12-22T23:59:53.544Z,2.06
